createdAt,value
2018-12-03T00:00:51.408Z,57.99
2018-12-03T00:01:54.579Z,57.70
2018-12-03T00:02:58.213Z,57.55
2018-12-03T00:04:05.171Z,57.77
2018-12-03T00:05:06.932Z,57.55
2018-12-03T00:06:08.705Z,57.30
2018-12-03T00:07:10.473Z,57.23
2018-12-03T00:08:12.209Z,57.23
2018-12-03T00:09:14.127Z,57.89
2018-12-03T00:10:15.874Z,57.55
2018-12-03T00:11:17.641Z,57.50
2018-12-03T00:12:19.397Z,58.02
2018-12-03T00:13:21.145Z,57.46
2018-12-03T00:14:22.897Z,57.82
2018-12-03T00:15:31.186Z,57.64
2018-12-03T00:16:32.983Z,57.55
2018-12-03T00:17:34.731Z,57.81
2018-12-03T00:18:36.497Z,57.36
2018-12-03T00:19:38.257Z,57.63
2018-12-03T00:20:40.017Z,57.99
2018-12-03T00:21:43.382Z,57.53
2018-12-03T00:22:45.146Z,57.69
2018-12-03T00:23:46.907Z,57.50
2018-12-03T00:24:48.671Z,57.70
2018-12-03T00:25:50.446Z,57.30
2018-12-03T00:26:52.233Z,58.09
2018-12-03T00:27:54.010Z,57.65
2018-12-03T00:28:55.798Z,57.56
2018-12-03T00:29:57.885Z,57.70
2018-12-03T00:30:59.685Z,57.28
2018-12-03T00:32:01.482Z,57.81
2018-12-03T00:33:03.290Z,57.47
2018-12-03T00:34:05.060Z,57.99
2018-12-03T00:35:06.826Z,57.24
2018-12-03T00:36:08.599Z,57.47
2018-12-03T00:37:11.321Z,57.58
2018-12-03T00:38:13.068Z,57.51
2018-12-03T00:39:14.820Z,57.70
2018-12-03T00:40:16.635Z,58.07
2018-12-03T00:41:18.418Z,58.01
2018-12-03T00:42:20.189Z,57.72
2018-12-03T00:43:21.933Z,57.92
2018-12-03T00:44:23.704Z,57.20
2018-12-03T00:45:25.467Z,57.60
2018-12-03T00:46:27.224Z,57.90
2018-12-03T00:47:28.993Z,57.09
2018-12-03T00:48:30.746Z,57.69
2018-12-03T00:49:32.527Z,57.93
2018-12-03T00:50:34.329Z,57.69
2018-12-03T00:51:36.099Z,57.44
2018-12-03T00:52:37.898Z,57.52
2018-12-03T00:53:39.671Z,57.89
2018-12-03T00:54:41.423Z,57.66
2018-12-03T00:55:43.197Z,57.41
2018-12-03T00:56:45.057Z,57.84
2018-12-03T00:57:46.845Z,57.13
2018-12-03T00:58:48.631Z,57.36
2018-12-03T00:59:50.402Z,57.90
2018-12-03T01:00:52.181Z,57.38
2018-12-03T01:01:53.942Z,57.51
2018-12-03T01:02:55.707Z,57.76
2018-12-03T01:03:57.479Z,57.82
2018-12-03T01:04:59.262Z,57.93
2018-12-03T01:06:01.066Z,57.71
2018-12-03T01:07:03.661Z,57.63
2018-12-03T01:08:05.474Z,57.36
2018-12-03T01:09:07.232Z,57.65
2018-12-03T01:10:08.988Z,57.56
2018-12-03T01:11:10.754Z,57.62
2018-12-03T01:12:12.523Z,57.49
2018-12-03T01:13:14.309Z,57.50
2018-12-03T01:14:16.073Z,57.85
2018-12-03T01:15:17.848Z,57.29
2018-12-03T01:16:19.610Z,57.06
2018-12-03T01:17:21.398Z,57.82
2018-12-03T01:18:23.296Z,57.52
2018-12-03T01:19:25.064Z,57.36
2018-12-03T01:20:26.848Z,57.61
2018-12-03T01:21:28.612Z,57.87
2018-12-03T01:22:30.380Z,57.66
2018-12-03T01:23:32.155Z,57.35
2018-12-03T01:24:33.934Z,57.36
2018-12-03T01:25:35.687Z,57.74
2018-12-03T01:26:37.433Z,57.75
2018-12-03T01:27:39.194Z,56.94
2018-12-03T01:28:40.982Z,57.54
2018-12-03T01:29:42.751Z,57.82
2018-12-03T01:30:44.520Z,57.02
2018-12-03T01:31:46.272Z,57.07
2018-12-03T01:32:48.031Z,56.83
2018-12-03T01:33:49.829Z,56.97
2018-12-03T01:34:51.605Z,57.34
2018-12-03T01:35:53.362Z,57.01
2018-12-03T01:36:55.126Z,57.73
2018-12-03T01:37:56.876Z,57.40
2018-12-03T01:38:58.642Z,57.14
2018-12-03T01:40:00.390Z,57.74
2018-12-03T01:41:02.147Z,57.50
2018-12-03T01:42:03.906Z,57.79
2018-12-03T01:43:05.932Z,57.84
2018-12-03T01:44:07.700Z,57.63
2018-12-03T01:45:09.481Z,57.46
2018-12-03T01:46:11.236Z,57.85
2018-12-03T01:47:12.988Z,57.30
2018-12-03T01:48:14.740Z,57.08
2018-12-03T01:49:16.514Z,57.23
2018-12-03T01:50:18.260Z,57.23
2018-12-03T01:51:20.035Z,57.81
2018-12-03T01:52:21.786Z,57.87
2018-12-03T01:53:23.537Z,57.03
2018-12-03T01:54:25.314Z,57.31
2018-12-03T01:55:27.086Z,57.48
2018-12-03T01:56:28.844Z,57.46
2018-12-03T01:57:30.598Z,57.16
2018-12-03T01:58:32.354Z,57.23
2018-12-03T01:59:34.120Z,57.32
2018-12-03T02:00:35.892Z,57.54
2018-12-03T02:01:37.654Z,57.41
2018-12-03T02:02:39.424Z,57.33
2018-12-03T02:03:41.216Z,56.98
2018-12-03T02:04:42.998Z,57.22
2018-12-03T02:05:44.754Z,56.90
2018-12-03T02:06:46.505Z,57.61
2018-12-03T02:07:48.253Z,57.74
2018-12-03T02:08:50.014Z,57.42
2018-12-03T02:09:51.804Z,57.71
2018-12-03T02:10:53.542Z,57.16
2018-12-03T02:11:55.303Z,57.61
2018-12-03T02:12:57.053Z,56.82
2018-12-03T02:13:58.812Z,57.20
2018-12-03T02:15:00.602Z,57.66
2018-12-03T02:16:02.360Z,57.68
2018-12-03T02:17:04.116Z,57.24
2018-12-03T02:18:05.877Z,57.41
2018-12-03T02:19:07.638Z,57.19
2018-12-03T02:20:09.417Z,57.42
2018-12-03T02:21:11.161Z,57.36
2018-12-03T02:22:12.902Z,57.66
2018-12-03T02:23:14.666Z,57.15
2018-12-03T02:24:16.414Z,57.15
2018-12-03T02:25:18.183Z,57.56
2018-12-03T02:26:19.948Z,57.62
2018-12-03T02:27:21.695Z,56.98
2018-12-03T02:28:23.436Z,57.30
2018-12-03T02:29:26.401Z,56.80
2018-12-03T02:30:28.257Z,57.44
2018-12-03T02:31:30.040Z,56.94
2018-12-03T02:32:32.852Z,57.13
2018-12-03T02:33:34.608Z,57.36
2018-12-03T02:34:36.914Z,57.28
2018-12-03T02:35:38.687Z,57.58
2018-12-03T02:36:40.458Z,57.31
2018-12-03T02:37:42.205Z,57.80
2018-12-03T02:38:43.988Z,57.16
2018-12-03T02:39:45.757Z,57.40
2018-12-03T02:40:47.532Z,57.42
2018-12-03T02:41:49.278Z,57.20
2018-12-03T02:42:51.042Z,57.10
2018-12-03T02:43:54.354Z,57.35
2018-12-03T02:44:56.112Z,56.96
2018-12-03T02:45:57.900Z,57.14
2018-12-03T02:46:59.665Z,57.67
2018-12-03T02:48:01.438Z,57.38
2018-12-03T02:49:03.198Z,57.38
2018-12-03T02:50:04.966Z,57.38
2018-12-03T02:51:06.739Z,57.19
2018-12-03T02:52:08.492Z,57.08
2018-12-03T02:53:10.259Z,57.08
2018-12-03T02:54:12.010Z,57.34
2018-12-03T02:55:14.261Z,56.98
2018-12-03T02:56:16.024Z,57.02
2018-12-03T02:57:17.772Z,57.40
2018-12-03T02:58:19.522Z,57.34
2018-12-03T02:59:21.284Z,57.23
2018-12-03T03:00:23.046Z,57.21
2018-12-03T03:01:24.848Z,57.01
2018-12-03T03:02:26.594Z,57.27
2018-12-03T03:03:28.357Z,56.50
2018-12-03T03:04:30.131Z,57.12
2018-12-03T03:05:31.871Z,57.54
2018-12-03T03:06:33.630Z,57.50
2018-12-03T03:07:35.394Z,57.72
2018-12-03T03:08:37.141Z,57.04
2018-12-03T03:09:39.474Z,57.32
2018-12-03T03:10:41.266Z,57.03
2018-12-03T03:11:43.072Z,57.36
2018-12-03T03:12:44.836Z,57.17
2018-12-03T03:13:46.598Z,57.26
2018-12-03T03:14:48.346Z,57.21
2018-12-03T03:15:50.098Z,57.12
2018-12-03T03:17:59.938Z,57.05
2018-12-03T03:19:02.132Z,57.31
2018-12-03T03:20:03.952Z,57.15
2018-12-03T03:21:05.950Z,57.10
2018-12-03T03:22:07.732Z,56.96
2018-12-03T03:23:09.484Z,57.51
2018-12-03T03:24:11.234Z,56.88
2018-12-03T03:25:12.994Z,57.11
2018-12-03T03:26:14.754Z,57.02
2018-12-03T03:27:17.036Z,57.92
2018-12-03T03:28:18.816Z,57.39
2018-12-03T03:29:20.698Z,57.19
2018-12-03T03:30:22.473Z,57.35
2018-12-03T03:31:24.251Z,57.18
2018-12-03T03:32:26.039Z,57.27
2018-12-03T03:33:27.800Z,56.81
2018-12-03T03:34:29.566Z,57.09
2018-12-03T03:35:31.316Z,57.11
2018-12-03T03:36:33.061Z,57.25
2018-12-03T03:37:34.854Z,57.08
2018-12-03T03:38:36.612Z,57.25
2018-12-03T03:39:38.366Z,57.23
2018-12-03T03:40:40.115Z,56.96
2018-12-03T03:41:41.864Z,57.19
2018-12-03T03:42:43.642Z,57.18
2018-12-03T03:43:45.388Z,57.41
2018-12-03T03:44:47.144Z,57.20
2018-12-03T03:45:48.892Z,57.05
2018-12-03T03:46:50.640Z,57.54
2018-12-03T03:47:52.416Z,57.08
2018-12-03T03:48:54.661Z,56.64
2018-12-03T03:49:56.552Z,57.47
2018-12-03T03:50:58.296Z,56.98
2018-12-03T03:52:00.052Z,56.87
2018-12-03T03:53:01.845Z,57.40
2018-12-03T03:54:03.598Z,57.54
2018-12-03T03:55:05.354Z,56.86
2018-12-03T03:56:07.120Z,56.88
2018-12-03T03:57:08.887Z,57.06
2018-12-03T03:58:10.661Z,56.92
2018-12-03T03:59:12.401Z,56.97
2018-12-03T04:00:14.164Z,56.87
2018-12-03T04:01:16.099Z,56.82
2018-12-03T04:02:17.857Z,56.95
2018-12-03T04:03:20.721Z,56.68
2018-12-03T04:04:22.469Z,57.10
2018-12-03T04:05:24.218Z,56.76
2018-12-03T04:06:25.971Z,56.64
2018-12-03T04:07:27.735Z,57.34
2018-12-03T04:08:29.512Z,56.87
2018-12-03T04:09:31.265Z,56.87
2018-12-03T04:10:33.024Z,57.41
2018-12-03T04:11:34.788Z,56.65
2018-12-03T04:12:36.542Z,56.79
2018-12-03T04:13:38.356Z,56.96
2018-12-03T04:14:40.117Z,57.32
2018-12-03T04:15:44.769Z,56.72
2018-12-03T04:16:46.513Z,56.50
2018-12-03T04:17:48.285Z,56.96
2018-12-03T04:18:50.055Z,56.64
2018-12-03T04:19:51.811Z,57.34
2018-12-03T04:20:53.578Z,56.78
2018-12-03T04:21:55.354Z,56.69
2018-12-03T04:22:57.106Z,57.43
2018-12-03T04:23:58.878Z,56.98
2018-12-03T04:25:00.655Z,57.11
2018-12-03T04:26:02.426Z,57.12
2018-12-03T04:27:04.181Z,56.93
2018-12-03T04:28:05.926Z,57.12
2018-12-03T04:29:07.703Z,56.64
2018-12-03T04:30:09.473Z,57.10
2018-12-03T04:31:11.247Z,57.42
2018-12-03T04:32:13.004Z,56.64
2018-12-03T04:33:14.973Z,57.14
2018-12-03T04:34:16.753Z,57.17
2018-12-03T04:35:18.502Z,56.80
2018-12-03T04:36:20.284Z,56.67
2018-12-03T04:37:22.061Z,56.73
2018-12-03T04:38:23.809Z,57.08
2018-12-03T04:39:25.633Z,57.08
2018-12-03T04:40:27.415Z,56.68
2018-12-03T04:41:29.167Z,57.02
2018-12-03T04:42:30.919Z,56.93
2018-12-03T04:43:32.686Z,56.86
2018-12-03T04:44:34.474Z,57.19
2018-12-03T04:45:37.525Z,57.34
2018-12-03T04:46:39.282Z,56.83
2018-12-03T04:47:41.043Z,57.15
2018-12-03T04:48:42.804Z,57.06
2018-12-03T04:49:44.617Z,57.20
2018-12-03T04:50:46.376Z,56.93
2018-12-03T04:51:49.261Z,56.83
2018-12-03T04:52:51.027Z,57.17
2018-12-03T04:53:52.774Z,57.28
2018-12-03T04:54:54.538Z,57.35
2018-12-03T04:55:56.298Z,56.82
2018-12-03T04:56:58.065Z,56.91
2018-12-03T04:57:59.830Z,56.74
2018-12-03T04:59:01.573Z,56.89
2018-12-03T05:00:03.367Z,56.71
2018-12-03T05:01:05.146Z,56.44
2018-12-03T05:02:06.895Z,57.14
2018-12-03T05:03:08.654Z,57.34
2018-12-03T05:04:10.414Z,57.12
2018-12-03T05:05:12.211Z,56.64
2018-12-03T05:06:13.986Z,57.18
2018-12-03T05:07:15.734Z,57.11
2018-12-03T05:08:17.493Z,56.75
2018-12-03T05:09:19.259Z,56.83
2018-12-03T05:10:21.050Z,56.98
2018-12-03T05:11:22.820Z,56.64
2018-12-03T05:12:24.588Z,56.90
2018-12-03T05:13:26.352Z,57.32
2018-12-03T05:14:28.110Z,57.08
2018-12-03T05:15:29.888Z,57.14
2018-12-03T05:16:31.721Z,56.79
2018-12-03T05:17:33.452Z,56.77
2018-12-03T05:18:35.213Z,56.69
2018-12-03T05:19:36.975Z,56.91
2018-12-03T05:20:38.753Z,56.86
2018-12-03T05:21:40.515Z,56.92
2018-12-03T05:22:42.273Z,56.88
2018-12-03T05:23:44.034Z,56.56
2018-12-03T05:24:45.789Z,56.56
2018-12-03T05:25:47.571Z,56.85
2018-12-03T05:26:49.864Z,56.85
2018-12-03T05:27:51.634Z,56.57
2018-12-03T05:28:53.413Z,56.69
2018-12-03T05:29:55.189Z,56.94
2018-12-03T05:30:56.979Z,57.03
2018-12-03T05:31:58.733Z,56.83
2018-12-03T05:33:00.499Z,56.91
2018-12-03T05:34:02.263Z,56.81
2018-12-03T05:35:04.023Z,57.28
2018-12-03T05:36:05.815Z,57.31
2018-12-03T05:37:07.577Z,56.84
2018-12-03T05:38:09.328Z,56.97
2018-12-03T05:39:11.091Z,57.19
2018-12-03T05:40:12.857Z,57.23
2018-12-03T05:41:15.171Z,56.60
2018-12-03T05:42:16.917Z,57.07
2018-12-03T05:43:18.679Z,56.93
2018-12-03T05:44:20.439Z,58.41
2018-12-03T05:45:22.189Z,58.00
2018-12-03T05:46:23.987Z,57.68
2018-12-03T05:47:26.369Z,56.86
2018-12-03T05:48:28.124Z,57.31
2018-12-03T05:49:29.887Z,57.37
2018-12-03T05:50:31.650Z,57.13
2018-12-03T05:51:33.431Z,57.69
2018-12-03T05:52:35.205Z,57.03
2018-12-03T05:53:36.961Z,57.21
2018-12-03T05:54:38.720Z,57.68
2018-12-03T05:55:40.480Z,57.91
2018-12-03T05:56:42.273Z,57.03
2018-12-03T05:57:44.033Z,57.26
2018-12-03T05:58:45.826Z,57.27
2018-12-03T05:59:47.597Z,58.55
2018-12-03T06:00:49.341Z,58.85
2018-12-03T06:01:51.121Z,58.74
2018-12-03T06:02:52.901Z,57.87
2018-12-03T06:03:54.666Z,58.01
2018-12-03T06:04:57.380Z,57.69
2018-12-03T06:05:59.147Z,58.13
2018-12-03T06:07:00.930Z,57.97
2018-12-03T06:08:02.681Z,58.65
2018-12-03T06:09:05.084Z,57.52
2018-12-03T06:10:06.841Z,57.93
2018-12-03T06:11:08.615Z,57.93
2018-12-03T06:12:10.410Z,57.52
2018-12-03T06:13:12.178Z,57.87
2018-12-03T06:14:15.683Z,58.02
2018-12-03T06:15:17.462Z,57.43
2018-12-03T06:16:19.222Z,57.72
2018-12-03T06:17:21.410Z,58.07
2018-12-03T06:18:22.838Z,57.58
2018-12-03T06:19:24.582Z,57.86
2018-12-03T06:20:26.369Z,57.74
2018-12-03T06:21:28.131Z,57.36
2018-12-03T06:22:29.917Z,57.59
2018-12-03T06:23:31.694Z,57.52
2018-12-03T06:24:33.456Z,57.96
2018-12-03T06:25:35.282Z,57.80
2018-12-03T06:26:37.042Z,57.29
2018-12-03T06:27:38.826Z,57.95
2018-12-03T06:28:40.607Z,57.38
2018-12-03T06:29:42.374Z,57.44
2018-12-03T06:30:44.130Z,57.36
2018-12-03T06:31:45.892Z,57.59
2018-12-03T06:32:47.660Z,57.58
2018-12-03T06:33:49.412Z,57.80
2018-12-03T06:34:52.328Z,57.68
2018-12-03T06:35:54.096Z,57.46
2018-12-03T06:36:55.851Z,57.62
2018-12-03T06:37:57.634Z,57.72
2018-12-03T06:38:59.387Z,57.84
2018-12-03T06:40:01.162Z,57.48
2018-12-03T06:41:02.928Z,57.51
2018-12-03T06:42:04.682Z,57.64
2018-12-03T06:43:06.454Z,57.97
2018-12-03T06:44:09.218Z,57.15
2018-12-03T06:45:10.967Z,57.65
2018-12-03T06:46:12.725Z,57.76
2018-12-03T06:47:14.484Z,57.61
2018-12-03T06:48:16.260Z,57.97
2018-12-03T06:49:18.030Z,57.79
2018-12-03T06:50:19.772Z,57.42
2018-12-03T06:51:22.925Z,57.71
2018-12-03T06:52:24.758Z,57.74
2018-12-03T06:53:26.548Z,58.41
2018-12-03T06:54:28.319Z,57.79
2018-12-03T06:55:30.703Z,57.32
2018-12-03T06:56:32.445Z,57.25
2018-12-03T06:57:34.181Z,57.60
2018-12-03T06:58:35.965Z,57.75
2018-12-03T06:59:37.743Z,57.94
2018-12-03T07:00:39.534Z,57.92
2018-12-03T07:01:41.284Z,57.38
2018-12-03T07:02:43.056Z,57.75
2018-12-03T07:03:44.851Z,57.56
2018-12-03T07:04:46.595Z,57.68
2018-12-03T07:05:50.081Z,57.92
2018-12-03T07:06:51.859Z,57.81
2018-12-03T07:07:53.633Z,57.46
2018-12-03T07:08:55.411Z,57.78
2018-12-03T07:09:57.177Z,57.91
2018-12-03T07:10:58.919Z,57.69
2018-12-03T07:12:00.679Z,57.23
2018-12-03T07:13:02.447Z,57.65
2018-12-03T07:14:04.241Z,57.68
2018-12-03T07:15:06.016Z,57.54
2018-12-03T07:16:07.773Z,57.67
2018-12-03T07:17:10.752Z,57.65
2018-12-03T07:18:12.522Z,57.72
2018-12-03T07:19:14.326Z,57.91
2018-12-03T07:20:16.088Z,58.37
2018-12-03T07:21:17.855Z,57.89
2018-12-03T07:22:21.363Z,57.31
2018-12-03T07:23:23.107Z,58.45
2018-12-03T07:24:26.020Z,59.95
2018-12-03T07:25:28.885Z,59.10
2018-12-03T07:26:30.632Z,60.07
2018-12-03T07:27:32.403Z,59.50
2018-12-03T07:28:34.171Z,59.66
2018-12-03T07:29:35.959Z,59.32
2018-12-03T07:30:37.757Z,58.60
2018-12-03T07:31:39.522Z,58.55
2018-12-03T07:32:41.405Z,59.25
2018-12-03T07:33:43.170Z,58.89
2018-12-03T07:34:44.950Z,59.00
2018-12-03T07:35:46.702Z,58.51
2018-12-03T07:36:48.449Z,58.52
2018-12-03T07:37:50.214Z,58.87
2018-12-03T07:38:51.969Z,58.57
2018-12-03T07:39:53.761Z,58.93
2018-12-03T07:40:55.524Z,58.76
2018-12-03T07:41:57.279Z,57.94
2018-12-03T07:42:59.056Z,58.60
2018-12-03T07:44:00.827Z,58.12
2018-12-03T07:45:03.082Z,58.77
2018-12-03T07:46:04.827Z,58.45
2018-12-03T07:47:06.602Z,58.29
2018-12-03T07:48:08.357Z,58.54
2018-12-03T07:49:10.120Z,58.51
2018-12-03T07:50:11.922Z,58.74
2018-12-03T07:51:13.685Z,58.52
2018-12-03T07:52:15.419Z,58.81
2018-12-03T07:53:17.182Z,58.75
2018-12-03T07:54:18.940Z,58.37
2018-12-03T07:55:20.744Z,58.46
2018-12-03T07:56:22.563Z,57.82
2018-12-03T07:57:25.789Z,57.92
2018-12-03T07:58:27.537Z,58.34
2018-12-03T07:59:29.290Z,58.63
2018-12-03T08:00:31.107Z,58.43
2018-12-03T08:01:32.886Z,57.98
2018-12-03T08:02:34.652Z,57.82
2018-12-03T08:03:36.421Z,58.35
2018-12-03T08:04:38.187Z,58.30
2018-12-03T08:05:39.965Z,57.78
2018-12-03T08:06:42.134Z,58.22
2018-12-03T08:07:44.086Z,58.33
2018-12-03T08:08:46.015Z,57.64
2018-12-03T08:09:47.785Z,58.15
2018-12-03T08:10:49.566Z,58.02
2018-12-03T08:11:51.334Z,58.16
2018-12-03T08:12:53.096Z,57.84
2018-12-03T08:13:55.384Z,58.06
2018-12-03T08:14:57.154Z,58.38
2018-12-03T08:15:58.952Z,58.19
2018-12-03T08:17:00.703Z,58.04
2018-12-03T08:18:06.257Z,58.46
2018-12-03T08:19:08.017Z,58.59
2018-12-03T08:20:09.784Z,57.91
2018-12-03T08:21:11.561Z,58.40
2018-12-03T08:22:13.321Z,58.33
2018-12-03T08:23:15.093Z,58.17
2018-12-03T08:24:16.859Z,58.23
2018-12-03T08:25:18.668Z,58.04
2018-12-03T08:26:20.432Z,58.32
2018-12-03T08:27:22.201Z,58.53
2018-12-03T08:28:27.022Z,58.36
2018-12-03T08:29:30.178Z,58.02
2018-12-03T08:30:32.050Z,58.44
2018-12-03T08:31:33.810Z,57.94
2018-12-03T08:32:35.561Z,57.60
2018-12-03T08:33:38.671Z,58.56
2018-12-03T08:34:40.448Z,58.11
2018-12-03T08:35:42.737Z,58.24
2018-12-03T08:36:45.505Z,58.46
2018-12-03T08:37:47.276Z,58.98
2018-12-03T08:38:49.065Z,58.61
2018-12-03T08:39:50.825Z,58.41
2018-12-03T08:40:52.926Z,58.49
2018-12-03T08:41:54.714Z,58.44
2018-12-03T08:42:56.504Z,58.46
2018-12-03T08:43:58.280Z,58.03
2018-12-03T08:45:00.050Z,57.69
2018-12-03T08:46:03.155Z,58.48
2018-12-03T08:47:05.674Z,58.49
2018-12-03T08:48:07.437Z,58.60
2018-12-03T08:49:09.189Z,58.42
2018-12-03T08:50:11.024Z,57.91
2018-12-03T08:51:12.921Z,57.90
2018-12-03T08:52:14.711Z,58.23
2018-12-03T08:53:16.586Z,58.22
2018-12-03T08:54:18.348Z,57.64
2018-12-03T08:55:20.104Z,58.18
2018-12-03T08:56:21.895Z,57.94
2018-12-03T08:57:23.744Z,58.39
2018-12-03T08:58:25.583Z,58.18
2018-12-03T08:59:27.391Z,57.86
2018-12-03T09:00:29.181Z,57.85
2018-12-03T09:01:31.280Z,58.33
2018-12-03T09:02:34.018Z,58.03
2018-12-03T09:03:35.819Z,57.91
2018-12-03T09:04:37.571Z,57.92
2018-12-03T09:05:39.378Z,58.20
2018-12-03T09:06:41.173Z,57.94
2018-12-03T09:07:42.964Z,57.82
2018-12-03T09:08:44.725Z,58.29
2018-12-03T09:09:46.493Z,57.88
2018-12-03T09:10:48.256Z,57.98
2018-12-03T09:11:50.021Z,57.67
2018-12-03T09:12:51.896Z,58.04
2018-12-03T09:13:53.677Z,57.98
2018-12-03T09:14:55.430Z,58.18
2018-12-03T09:15:57.192Z,58.43
2018-12-03T09:17:02.461Z,57.89
2018-12-03T09:18:00.793Z,58.50
2018-12-03T09:19:02.582Z,58.05
2018-12-03T09:20:04.346Z,57.81
2018-12-03T09:21:08.653Z,58.36
2018-12-03T09:22:10.426Z,58.16
2018-12-03T09:23:12.222Z,57.93
2018-12-03T09:24:15.170Z,57.97
2018-12-03T09:25:18.226Z,57.90
2018-12-03T09:26:19.051Z,57.98
2018-12-03T09:27:20.820Z,58.33
2018-12-03T09:28:22.597Z,57.53
2018-12-03T09:29:24.363Z,58.18
2018-12-03T09:30:27.940Z,58.24
2018-12-03T09:31:27.953Z,58.11
2018-12-03T09:32:29.731Z,57.69
2018-12-03T09:33:31.513Z,58.09
2018-12-03T09:34:33.291Z,58.33
2018-12-03T09:35:35.042Z,58.20
2018-12-03T09:36:36.793Z,58.19
2018-12-03T09:37:38.881Z,58.13
2018-12-03T09:38:40.657Z,58.10
2018-12-03T09:39:42.452Z,57.83
2018-12-03T09:40:44.204Z,57.83
2018-12-03T09:41:45.971Z,58.19
2018-12-03T09:42:47.753Z,58.15
2018-12-03T09:43:49.656Z,58.06
2018-12-03T09:44:51.421Z,57.42
2018-12-03T09:45:53.193Z,57.45
2018-12-03T09:46:54.951Z,58.35
2018-12-03T09:47:56.715Z,57.57
2018-12-03T09:48:58.495Z,57.78
2018-12-03T09:50:00.295Z,57.94
2018-12-03T09:51:02.047Z,58.26
2018-12-03T09:52:03.801Z,57.92
2018-12-03T09:53:05.569Z,58.04
2018-12-03T09:54:07.324Z,57.94
2018-12-03T09:55:09.201Z,58.41
2018-12-03T09:56:11.011Z,57.80
2018-12-03T09:57:12.770Z,57.92
2018-12-03T09:58:14.535Z,57.11
2018-12-03T09:59:16.316Z,58.37
2018-12-03T10:00:18.086Z,58.05
2018-12-03T10:01:19.859Z,57.64
2018-12-03T10:02:21.615Z,58.19
2018-12-03T10:03:23.769Z,57.75
2018-12-03T10:04:30.369Z,58.28
2018-12-03T10:05:32.138Z,58.32
2018-12-03T10:06:33.897Z,58.04
2018-12-03T10:07:35.661Z,57.79
2018-12-03T10:08:37.415Z,57.92
2018-12-03T10:09:39.194Z,57.66
2018-12-03T10:10:40.945Z,58.06
2018-12-03T10:11:42.767Z,57.95
2018-12-03T10:12:44.547Z,57.61
2018-12-03T10:13:46.316Z,58.36
2018-12-03T10:14:49.586Z,57.86
2018-12-03T10:15:51.432Z,57.76
2018-12-03T10:16:53.201Z,58.16
2018-12-03T10:17:54.962Z,58.47
2018-12-03T10:19:00.331Z,57.70
2018-12-03T10:19:59.370Z,57.81
2018-12-03T10:21:01.121Z,57.86
2018-12-03T10:22:02.892Z,57.64
2018-12-03T10:23:04.662Z,57.87
2018-12-03T10:24:06.440Z,57.99
2018-12-03T10:25:08.242Z,57.91
2018-12-03T10:26:10.363Z,57.96
2018-12-03T10:27:12.122Z,57.62
2018-12-03T10:28:13.903Z,58.24
2018-12-03T10:29:16.166Z,57.61
2018-12-03T10:30:18.022Z,58.22
2018-12-03T10:31:19.792Z,58.13
2018-12-03T10:32:21.710Z,58.01
2018-12-03T10:33:23.517Z,57.87
2018-12-03T10:34:25.307Z,58.23
2018-12-03T10:35:27.101Z,57.88
2018-12-03T10:36:28.848Z,57.79
2018-12-03T10:37:30.618Z,57.57
2018-12-03T10:38:32.388Z,57.79
2018-12-03T10:39:34.229Z,57.52
2018-12-03T10:40:35.999Z,57.71
2018-12-03T10:41:37.764Z,57.48
2018-12-03T10:42:39.577Z,57.78
2018-12-03T10:43:41.336Z,57.70
2018-12-03T10:44:43.096Z,57.99
2018-12-03T10:45:44.845Z,57.38
2018-12-03T10:46:46.594Z,57.69
2018-12-03T10:47:48.369Z,57.64
2018-12-03T10:48:50.122Z,57.92
2018-12-03T10:49:52.786Z,58.16
2018-12-03T10:50:54.547Z,57.95
2018-12-03T10:51:56.306Z,58.47
2018-12-03T10:52:58.076Z,57.46
2018-12-03T10:53:59.850Z,57.78
2018-12-03T10:55:01.643Z,57.95
2018-12-03T10:56:03.443Z,58.65
2018-12-03T10:57:05.234Z,57.81
2018-12-03T10:58:07.722Z,57.54
2018-12-03T10:59:10.050Z,57.76
2018-12-03T11:00:11.922Z,57.78
2018-12-03T11:01:19.225Z,57.48
2018-12-03T11:02:26.471Z,58.09
2018-12-03T11:03:33.754Z,57.87
2018-12-03T11:04:40.997Z,57.95
2018-12-03T11:05:48.285Z,57.44
2018-12-03T11:06:50.067Z,57.96
2018-12-03T11:07:51.830Z,57.47
2018-12-03T11:08:53.595Z,58.03
2018-12-03T11:09:55.360Z,57.99
2018-12-03T11:10:58.677Z,58.19
2018-12-03T11:12:00.454Z,57.64
2018-12-03T11:13:02.211Z,57.77
2018-12-03T11:14:03.973Z,57.91
2018-12-03T11:15:05.731Z,57.55
2018-12-03T11:16:07.515Z,57.87
2018-12-03T11:17:09.270Z,58.18
2018-12-03T11:18:11.022Z,57.71
2018-12-03T11:19:12.787Z,58.11
2018-12-03T11:20:14.642Z,58.14
2018-12-03T11:21:16.445Z,58.19
2018-12-03T11:22:18.201Z,57.70
2018-12-03T11:23:19.959Z,57.38
2018-12-03T11:24:21.723Z,57.32
2018-12-03T11:25:23.560Z,57.44
2018-12-03T11:26:25.467Z,57.95
2018-12-03T11:27:27.248Z,57.33
2018-12-03T11:28:29.049Z,57.67
2018-12-03T11:29:30.818Z,57.92
2018-12-03T11:30:32.595Z,58.11
2018-12-03T11:31:34.364Z,57.61
2018-12-03T11:32:36.123Z,57.83
2018-12-03T11:33:37.911Z,57.73
2018-12-03T11:34:39.714Z,58.11
2018-12-03T11:35:41.487Z,57.43
2018-12-03T11:36:43.269Z,58.07
2018-12-03T11:37:45.039Z,57.93
2018-12-03T11:38:46.824Z,58.11
2018-12-03T11:39:55.031Z,57.75
2018-12-03T11:40:56.816Z,58.07
2018-12-03T11:41:58.615Z,57.83
2018-12-03T11:43:00.445Z,58.33
2018-12-03T11:44:02.211Z,58.16
2018-12-03T11:45:03.977Z,57.74
2018-12-03T11:46:05.753Z,57.83
2018-12-03T11:47:09.359Z,57.93
2018-12-03T11:48:11.139Z,58.20
2018-12-03T11:49:12.892Z,57.58
2018-12-03T11:50:14.659Z,57.60
2018-12-03T11:51:16.437Z,58.10
2018-12-03T11:52:18.265Z,57.58
2018-12-03T11:53:20.030Z,57.97
2018-12-03T11:54:21.800Z,57.39
2018-12-03T11:55:23.580Z,58.09
2018-12-03T11:56:25.346Z,57.32
2018-12-03T11:57:27.642Z,58.33
2018-12-03T11:58:29.420Z,57.64
2018-12-03T11:59:31.167Z,57.66
2018-12-03T12:00:32.926Z,57.58
2018-12-03T12:01:34.701Z,57.71
2018-12-03T12:02:36.473Z,57.96
2018-12-03T12:03:42.999Z,57.54
2018-12-03T12:04:44.421Z,57.67
2018-12-03T12:05:46.179Z,58.13
2018-12-03T12:06:47.968Z,57.54
2018-12-03T12:07:49.752Z,58.03
2018-12-03T12:08:51.607Z,57.50
2018-12-03T12:09:53.374Z,57.49
2018-12-03T12:10:55.130Z,57.64
2018-12-03T12:11:56.899Z,57.57
2018-12-03T12:12:58.682Z,57.31
2018-12-03T12:14:00.442Z,58.02
2018-12-03T12:15:02.217Z,57.64
2018-12-03T12:16:04.004Z,57.79
2018-12-03T12:17:05.763Z,57.42
2018-12-03T12:18:07.567Z,57.95
2018-12-03T12:19:10.724Z,57.26
2018-12-03T12:20:12.498Z,57.51
2018-12-03T12:21:14.254Z,58.00
2018-12-03T12:22:16.035Z,57.68
2018-12-03T12:23:17.829Z,57.08
2018-12-03T12:24:19.598Z,57.75
2018-12-03T12:25:21.356Z,57.14
2018-12-03T12:26:23.126Z,57.89
2018-12-03T12:27:24.904Z,57.23
2018-12-03T12:28:26.695Z,57.25
2018-12-03T12:29:28.542Z,57.64
2018-12-03T12:30:30.369Z,57.47
2018-12-03T12:31:34.222Z,57.53
2018-12-03T12:32:35.989Z,57.13
2018-12-03T12:33:37.780Z,57.36
2018-12-03T12:34:39.541Z,57.38
2018-12-03T12:35:41.300Z,57.92
2018-12-03T12:36:43.064Z,57.01
2018-12-03T12:37:44.808Z,57.27
2018-12-03T12:38:46.592Z,57.41
2018-12-03T12:39:48.349Z,57.53
2018-12-03T12:40:50.131Z,57.35
2018-12-03T12:41:51.904Z,57.41
2018-12-03T12:42:53.661Z,57.44
2018-12-03T12:43:55.453Z,57.82
2018-12-03T12:44:57.221Z,57.55
2018-12-03T12:45:59.006Z,57.55
2018-12-03T12:47:00.769Z,57.07
2018-12-03T12:48:02.535Z,57.52
2018-12-03T12:49:04.353Z,57.59
2018-12-03T12:50:06.137Z,57.49
2018-12-03T12:51:09.141Z,57.60
2018-12-03T12:52:10.919Z,57.51
2018-12-03T12:53:12.680Z,57.57
2018-12-03T12:54:14.495Z,57.64
2018-12-03T12:55:16.278Z,57.49
2018-12-03T12:56:18.097Z,57.38
2018-12-03T12:57:19.858Z,57.53
2018-12-03T12:58:21.609Z,56.98
2018-12-03T12:59:23.377Z,57.26
2018-12-03T13:00:25.202Z,57.60
2018-12-03T13:01:26.959Z,57.46
2018-12-03T13:02:28.713Z,57.93
2018-12-03T13:03:30.512Z,57.29
2018-12-03T13:04:32.314Z,57.52
2018-12-03T13:05:34.091Z,57.25
2018-12-03T13:06:35.856Z,57.92
2018-12-03T13:07:37.646Z,57.51
2018-12-03T13:08:39.433Z,57.41
2018-12-03T13:09:41.233Z,57.26
2018-12-03T13:10:42.997Z,57.39
2018-12-03T13:11:44.761Z,57.25
2018-12-03T13:12:46.526Z,57.30
2018-12-03T13:13:49.601Z,57.80
2018-12-03T13:14:51.409Z,57.61
2018-12-03T13:15:53.171Z,57.52
2018-12-03T13:16:54.940Z,57.58
2018-12-03T13:17:56.697Z,57.01
2018-12-03T13:18:58.650Z,57.32